Time;durP1;ratioP1;P1;durP2;ratioP2;P2;SDS_P1;SDS_P2;PMS_P1;PMS_P2;Temp;Humidity;BMP_temperature;BMP_pressure;BME280_temperature;BME280_humidity;BME280_pressure;Samples;Min_cycle;Max_cycle;Signal;HPM_P1;HPM_P2
2022/09/27 00:01:03;;;;;;;3.70;3.33;;;10.70;99.90;;;;;;5092141;28;20461;-47
2022/09/27 00:03:29;;;;;;;3.83;3.53;;;10.70;99.90;;;;;;5094620;28;20656;-46
2022/09/27 00:06:04;;;;;;;4.53;3.37;;;10.70;99.90;;;;;;5094233;28;20488;-47
2022/09/27 00:08:31;;;;;;;4.23;3.57;;;10.60;99.90;;;;;;5078365;28;21179;-47
2022/09/27 00:11:02;;;;;;;3.87;3.30;;;10.60;99.90;;;;;;5082425;28;20525;-47
2022/09/27 00:13:28;;;;;;;4.17;3.30;;;10.70;99.90;;;;;;5094046;28;20430;-47
2022/09/27 00:16:04;;;;;;;4.60;3.70;;;10.70;99.90;;;;;;5110045;28;20424;-48
2022/09/27 00:18:31;;;;;;;3.63;3.33;;;10.70;99.90;;;;;;5088625;28;20469;-47
2022/09/27 00:21:07;;;;;;;5.23;3.10;;;10.60;99.90;;;;;;5094176;28;20414;-52
2022/09/27 00:23:34;;;;;;;3.97;3.20;;;10.70;99.90;;;;;;5089748;28;20430;-47
2022/09/27 00:25:59;;;;;;;7.40;3.50;;;10.60;99.90;;;;;;5089277;28;20430;-47
2022/09/27 00:28:25;;;;;;;5.00;3.30;;;10.60;99.90;;;;;;5092779;28;20453;-47
2022/09/27 00:30:52;;;;;;;3.77;3.43;;;10.60;1.00;;;;;;5094007;28;20212;-47
2022/09/27 00:33:18;;;;;;;5.07;3.80;;;10.60;1.00;;;;;;5090394;28;20189;-48
2022/09/27 00:35:44;;;;;;;4.30;3.43;;;10.60;1.00;;;;;;5093664;28;20456;-52
2022/09/27 00:38:10;;;;;;;5.30;4.00;;;10.60;1.00;;;;;;5090876;28;20248;-47
2022/09/27 00:40:36;;;;;;;3.77;3.33;;;10.60;1.00;;;;;;5093026;28;20695;-47
2022/09/27 00:43:02;;;;;;;3.90;3.50;;;10.60;1.00;;;;;;5092318;28;20467;-48
2022/09/27 00:45:27;;;;;;;4.23;3.83;;;10.60;1.00;;;;;;5093820;28;20169;-47
2022/09/27 00:48:00;;;;;;;4.17;3.77;;;10.60;1.00;;;;;;5091596;28;20484;-48
2022/09/27 00:50:35;;;;;;;3.30;3.10;;;10.70;1.00;;;;;;5090559;28;20689;-47
2022/09/27 00:53:09;;;;;;;3.50;3.20;;;10.60;1.00;;;;;;5092604;28;20457;-47
2022/09/27 00:55:48;;;;;;;4.03;3.63;;;10.60;1.00;;;;;;5093468;28;20398;-47
2022/09/27 00:58:16;;;;;;;3.53;3.23;;;10.60;1.00;;;;;;5087771;28;20991;-47
2022/09/27 01:00:46;;;;;;;3.80;3.50;;;10.70;1.00;;;;;;5092929;28;20443;-47
2022/09/27 01:03:39;;;;;;;3.93;3.20;;;10.70;1.00;;;;;;5092635;28;21232;-47
2022/09/27 01:06:06;;;;;;;5.30;3.67;;;10.60;1.00;;;;;;5073051;28;20435;-47
2022/09/27 01:08:32;;;;;;;3.40;3.07;;;10.60;1.00;;;;;;5092044;28;20442;-47
2022/09/27 01:11:24;;;;;;;3.20;2.87;;;10.60;1.00;;;;;;5092321;28;21211;-47
2022/09/27 01:14:04;;;;;;;7.90;3.13;;;10.60;1.00;;;;;;5036186;28;20210;-47
2022/09/27 01:17:06;;;;;;;4.63;2.97;;;10.60;1.00;;;;;;5083720;28;20500;-47
2022/09/27 01:20:07;;;;;;;3.53;3.10;;;10.60;1.00;;;;;;5087886;28;20437;-47
2022/09/27 01:22:39;;;;;;;3.30;3.00;;;10.60;1.00;;;;;;5092416;28;20439;-47
2022/09/27 01:25:15;;;;;;;3.70;3.30;;;10.60;1.00;;;;;;5092265;28;20537;-48
2022/09/27 01:27:59;;;;;;;3.43;3.13;;;10.60;1.00;;;;;;5090737;28;20430;-47
2022/09/27 01:30:49;;;;;;;3.37;3.07;;;10.60;1.00;;;;;;5091094;28;20927;-47
2022/09/27 01:33:20;;;;;;;3.77;3.40;;;10.50;1.00;;;;;;5083987;28;20772;-47
2022/09/27 01:36:03;;;;;;;3.83;2.97;;;10.50;1.00;;;;;;5092005;28;20442;-48
2022/09/27 01:38:37;;;;;;;3.73;3.37;;;10.60;1.00;;;;;;5091791;28;20474;-47
2022/09/27 01:41:10;;;;;;;7.40;3.23;;;10.60;1.00;;;;;;5092603;28;20405;-47
2022/09/27 01:43:59;;;;;;;4.50;3.23;;;10.60;1.00;;;;;;5090896;28;20492;-47
2022/09/27 01:46:39;;;;;;;3.50;3.17;;;10.60;1.00;;;;;;5091227;28;20443;-47
2022/09/27 01:49:11;;;;;;;3.43;3.13;;;10.60;1.00;;;;;;5088937;28;20442;-47
2022/09/27 01:52:01;;;;;;;3.60;3.30;;;10.60;1.00;;;;;;5091256;28;20829;-47
2022/09/27 01:54:46;;;;;;;3.60;3.30;;;10.60;1.00;;;;;;5092119;28;20451;-48
2022/09/27 01:57:17;;;;;;;2.80;2.60;;;10.60;1.00;;;;;;5089487;28;20470;-47
2022/09/27 01:59:48;;;;;;;4.20;3.30;;;10.60;1.00;;;;;;5091749;28;20426;-48
2022/09/27 02:02:16;;;;;;;4.63;3.63;;;10.50;1.00;;;;;;5089685;28;20818;-47
2022/09/27 02:04:47;;;;;;;4.60;3.43;;;10.50;1.00;;;;;;5092059;28;20503;-47
2022/09/27 02:07:22;;;;;;;3.47;3.17;;;10.50;1.00;;;;;;5090951;28;20913;-47
2022/09/27 02:09:53;;;;;;;3.73;3.43;;;10.50;1.00;;;;;;5090952;28;20431;-46
2022/09/27 02:12:24;;;;;;;4.33;3.43;;;10.50;1.00;;;;;;5091127;28;20439;-48
2022/09/27 02:14:59;;;;;;;6.73;3.00;;;10.50;1.00;;;;;;5089990;28;20423;-47
2022/09/27 02:17:43;;;;;;;3.63;2.90;;;10.60;1.00;;;;;;5090946;28;20466;-48
2022/09/27 02:20:34;;;;;;;6.13;3.20;;;10.50;1.00;;;;;;5090200;28;20568;-48
2022/09/27 02:23:17;;;;;;;4.13;3.20;;;10.60;1.00;;;;;;5088205;28;20519;-47
2022/09/27 02:25:50;;;;;;;3.10;2.67;;;10.50;1.00;;;;;;5091660;28;20419;-47
2022/09/27 02:28:32;;;;;;;3.00;2.80;;;10.50;1.00;;;;;;5091405;28;21440;-47
2022/09/27 02:30:58;;;;;;;7.63;3.00;;;10.50;1.00;;;;;;5091155;28;20916;-47
2022/09/27 02:33:31;;;;;;;2.93;2.40;;;10.50;1.00;;;;;;5090250;28;20433;-47
2022/09/27 02:35:57;;;;;;;3.10;2.30;;;10.50;1.00;;;;;;5091815;28;20503;-47
2022/09/27 02:38:23;;;;;;;2.80;2.53;;;10.60;1.00;;;;;;5090198;28;20577;-48
2022/09/27 02:40:49;;;;;;;3.73;3.00;;;10.50;1.00;;;;;;5090368;28;20232;-47
2022/09/27 02:43:17;;;;;;;3.20;2.43;;;10.60;1.00;;;;;;5089520;28;20582;-48
2022/09/27 02:46:14;;;;;;;3.03;2.73;;;10.60;1.00;;;;;;5091017;28;20250;-47
2022/09/27 02:48:54;;;;;;;2.97;2.77;;;10.50;1.00;;;;;;5089237;28;20932;-46
2022/09/27 02:51:32;;;;;;;3.20;2.30;;;10.60;1.00;;;;;;5090717;28;20933;-47
2022/09/27 02:54:29;;;;;;;2.80;2.60;;;10.60;1.00;;;;;;5090877;28;20438;-48
2022/09/27 02:57:30;;;;;;;2.80;2.50;;;10.50;1.00;;;;;;5089413;28;20470;-48
2022/09/27 03:00:00;;;;;;;2.97;2.77;;;10.50;1.00;;;;;;5091048;28;20416;-48
2022/09/27 03:02:57;;;;;;;2.70;2.50;;;10.60;1.00;;;;;;5089472;28;20476;-48
2022/09/27 03:05:30;;;;;;;2.90;2.60;;;10.60;1.00;;;;;;5088923;28;21509;-47
2022/09/27 03:07:56;;;;;;;2.80;2.60;;;10.60;1.00;;;;;;5088334;28;20438;-48
2022/09/27 03:10:27;;;;;;;3.23;3.03;;;10.60;1.00;;;;;;5091084;28;20484;-47
2022/09/27 03:12:53;;;;;;;3.30;3.07;;;10.60;1.00;;;;;;5089632;28;20465;-47
2022/09/27 03:15:19;;;;;;;3.93;3.53;;;10.50;1.00;;;;;;5090748;28;20786;-47
2022/09/27 03:17:45;;;;;;;3.43;3.13;;;10.60;1.00;;;;;;5089220;28;20474;-51
2022/09/27 03:20:11;;;;;;;3.10;2.83;;;10.60;1.00;;;;;;5090356;28;20225;-47
2022/09/27 03:22:37;;;;;;;5.47;3.37;;;10.60;1.00;;;;;;5089398;28;20192;-47
2022/09/27 03:25:07;;;;;;;3.90;3.17;;;10.60;1.00;;;;;;5087226;28;20439;-48
2022/09/27 03:27:32;;;;;;;3.67;3.37;;;10.50;1.00;;;;;;5089144;28;20646;-47
2022/09/27 03:29:58;;;;;;;3.43;3.10;;;10.60;1.00;;;;;;5090367;28;20438;-48
2022/09/27 03:32:25;;;;;;;3.37;3.07;;;10.50;1.00;;;;;;5089831;28;20200;-47
2022/09/27 03:34:51;;;;;;;4.10;3.67;;;10.50;1.00;;;;;;5088840;28;20197;-47
2022/09/27 03:37:17;;;;;;;3.10;2.90;;;10.50;1.00;;;;;;5090043;28;20469;-48
2022/09/27 03:39:42;;;;;;;4.20;3.60;;;10.50;1.00;;;;;;5089878;28;20443;-47
2022/09/27 03:42:08;;;;;;;3.07;2.80;;;10.50;1.00;;;;;;5090392;28;20262;-48
2022/09/27 03:44:33;;;;;;;4.10;3.70;;;10.50;1.00;;;;;;5089571;28;20192;-48
2022/09/27 03:46:59;;;;;;;4.73;3.30;;;10.50;1.00;;;;;;5089853;28;20654;-47
2022/09/27 03:49:25;;;;;;;4.27;3.80;;;10.50;1.00;;;;;;5089772;28;20193;-48
2022/09/27 03:51:50;;;;;;;4.63;3.60;;;10.50;1.00;;;;;;5090050;28;20312;-47
2022/09/27 03:54:16;;;;;;;4.33;3.73;;;10.60;1.00;;;;;;5089661;28;20193;-48
2022/09/27 03:56:42;;;;;;;3.90;3.53;;;10.50;1.00;;;;;;5088766;28;20204;-47
2022/09/27 03:59:07;;;;;;;4.30;3.90;;;10.60;1.00;;;;;;5088665;28;20199;-47
2022/09/27 04:01:35;;;;;;;5.60;4.60;;;10.60;1.00;;;;;;5090414;28;20203;-49
2022/09/27 04:04:01;;;;;;;5.70;4.70;;;10.60;1.00;;;;;;5088117;28;20191;-47
2022/09/27 04:06:26;;;;;;;5.00;4.40;;;10.60;1.00;;;;;;5090324;28;20424;-48
2022/09/27 04:08:53;;;;;;;7.83;5.80;;;10.50;1.00;;;;;;5089473;28;20208;-49
2022/09/27 04:11:18;;;;;;;5.90;5.00;;;10.50;1.00;;;;;;5087186;28;20216;-47
2022/09/27 04:13:47;;;;;;;4.70;4.17;;;10.60;1.00;;;;;;5088356;28;20463;-47
2022/09/27 04:16:14;;;;;;;4.03;3.63;;;10.60;1.00;;;;;;5090439;28;20411;-47
2022/09/27 04:18:40;;;;;;;5.10;3.73;;;10.60;1.00;;;;;;5082480;28;20936;-47
2022/09/27 04:21:05;;;;;;;3.43;3.13;;;10.60;1.00;;;;;;5080445;28;20437;-47
2022/09/27 04:23:32;;;;;;;3.80;3.33;;;10.60;1.00;;;;;;5088739;28;20592;-47
2022/09/27 04:25:57;;;;;;;3.97;3.63;;;10.60;1.00;;;;;;5090380;28;20177;-47
2022/09/27 04:28:23;;;;;;;3.77;3.47;;;10.50;1.00;;;;;;5089406;28;20966;-48
2022/09/27 04:30:49;;;;;;;3.10;2.90;;;10.60;1.00;;;;;;5082393;28;20197;-47
2022/09/27 04:33:14;;;;;;;3.37;3.13;;;10.50;1.00;;;;;;5082312;28;20193;-48
2022/09/27 04:38:25;;;;;;;4.30;3.63;;;10.50;1.00;;;;;;5092700;28;20242;-48
2022/09/27 04:40:51;;;;;;;5.33;3.83;;;10.60;1.00;;;;;;5093648;28;20423;-47
2022/09/27 04:43:16;;;;;;;4.53;4.13;;;10.60;1.00;;;;;;5092679;28;20185;-48
2022/09/27 04:45:43;;;;;;;5.03;4.53;;;10.60;1.00;;;;;;5092168;28;20217;-47
2022/09/27 04:48:09;;;;;;;5.53;4.90;;;10.60;1.00;;;;;;5091639;28;20457;-48
2022/09/27 04:50:35;;;;;;;6.10;5.50;;;10.60;1.00;;;;;;5093002;28;20462;-47
2022/09/27 04:53:01;;;;;;;5.77;5.17;;;10.60;1.00;;;;;;5092031;28;20528;-47
2022/09/27 04:55:26;;;;;;;7.30;6.00;;;10.60;1.00;;;;;;5092412;28;20177;-47
2022/09/27 04:57:52;;;;;;;8.87;6.40;;;10.60;1.00;;;;;;5092554;28;20224;-47
2022/09/27 05:00:18;;;;;;;9.07;6.87;;;10.60;1.00;;;;;;5092833;28;20185;-48
2022/09/27 05:02:45;;;;;;;11.53;8.17;;;10.60;1.00;;;;;;5092893;28;20189;-47
2022/09/27 05:05:10;;;;;;;13.70;8.67;;;10.60;1.00;;;;;;5091249;28;20196;-47
2022/09/27 05:07:37;;;;;;;10.97;8.17;;;10.60;1.00;;;;;;5092879;28;20798;-48
2022/09/27 05:10:03;;;;;;;15.50;8.53;;;10.60;1.00;;;;;;5093625;28;20259;-47
2022/09/27 05:12:29;;;;;;;14.40;8.70;;;10.60;1.00;;;;;;5090225;28;20444;-48
2022/09/27 05:14:54;;;;;;;12.40;9.10;;;10.60;1.00;;;;;;5093398;28;20468;-47
2022/09/27 05:17:21;;;;;;;11.30;8.70;;;10.60;1.00;;;;;;5093875;28;20211;-46
2022/09/27 05:19:47;;;;;;;11.57;8.87;;;10.60;1.00;;;;;;5093563;28;20185;-46
2022/09/27 05:22:13;;;;;;;12.60;9.60;;;10.60;1.00;;;;;;5091874;28;21022;-46
2022/09/27 05:24:39;;;;;;;13.33;9.30;;;10.60;1.00;;;;;;5093433;28;20415;-46
2022/09/27 05:27:07;;;;;;;13.17;9.40;;;10.60;1.00;;;;;;5093780;28;20410;-46
2022/09/27 05:29:34;;;;;;;13.00;9.93;;;10.60;1.00;;;;;;5093462;28;20250;-46
2022/09/27 05:32:00;;;;;;;14.83;9.87;;;10.60;1.00;;;;;;5094079;28;20924;-45
2022/09/27 05:34:26;;;;;;;15.37;9.83;;;10.60;1.00;;;;;;5090934;28;20963;-46
2022/09/27 05:36:51;;;;;;;15.33;10.73;;;10.60;1.00;;;;;;5092150;28;20471;-46
2022/09/27 05:39:17;;;;;;;16.30;10.70;;;10.60;1.00;;;;;;5093945;28;20171;-46
2022/09/27 05:41:44;;;;;;;15.83;11.40;;;10.60;1.00;;;;;;5091977;28;20233;-46
2022/09/27 05:44:09;;;;;;;20.00;12.30;;;10.60;1.00;;;;;;5092788;28;20521;-46
2022/09/27 05:46:35;;;;;;;20.97;12.50;;;10.60;1.00;;;;;;5094604;28;20519;-53
2022/09/27 05:49:00;;;;;;;21.97;13.50;;;10.60;1.00;;;;;;5093376;28;20239;-46
2022/09/27 05:51:27;;;;;;;19.80;13.30;;;10.70;1.00;;;;;;5091645;28;20653;-46
2022/09/27 05:53:53;;;;;;;20.03;13.20;;;10.60;1.00;;;;;;5093721;28;20200;-46
2022/09/27 05:56:18;;;;;;;20.30;12.90;;;10.60;1.00;;;;;;5091634;28;20442;-46
2022/09/27 05:58:44;;;;;;;24.63;13.73;;;10.70;1.00;;;;;;5091487;28;20272;-53
2022/09/27 06:01:09;;;;;;;27.47;15.23;;;10.70;1.00;;;;;;5092028;28;20223;-46
2022/09/27 06:03:35;;;;;;;27.83;15.40;;;10.70;1.00;;;;;;5092300;28;20193;-45
2022/09/27 06:06:05;;;;;;;24.83;15.00;;;10.80;1.00;;;;;;5092026;28;20195;-46
2022/09/27 06:08:36;;;;;;;25.03;14.83;;;10.80;1.00;;;;;;5092963;28;20443;-46
2022/09/27 06:11:07;;;;;;;23.27;14.40;;;10.70;1.00;;;;;;5091868;28;20872;-46
2022/09/27 06:13:33;;;;;;;22.90;14.50;;;10.80;1.00;;;;;;5091194;28;20508;-46
2022/09/27 06:15:59;;;;;;;21.33;13.83;;;10.80;1.00;;;;;;5091303;28;21002;-46
2022/09/27 06:18:25;;;;;;;25.93;14.70;;;10.80;1.00;;;;;;5091634;28;20970;-46
2022/09/27 06:20:51;;;;;;;30.13;13.97;;;10.90;1.00;;;;;;5092333;28;20530;-47
2022/09/27 06:23:21;;;;;;;23.87;13.37;;;10.90;1.00;;;;;;5091022;28;20193;-47
2022/09/27 06:25:49;;;;;;;19.50;12.67;;;10.80;1.00;;;;;;5089167;28;20212;-47
2022/09/27 06:28:15;;;;;;;17.47;11.20;;;10.90;1.00;;;;;;5090394;28;20426;-46
2022/09/27 06:30:43;;;;;;;19.20;11.53;;;10.90;1.00;;;;;;5067666;28;20423;-47
2022/09/27 06:33:10;;;;;;;17.40;10.50;;;10.90;1.00;;;;;;5085067;28;20505;-47
2022/09/27 06:35:36;;;;;;;22.20;10.50;;;10.80;1.00;;;;;;5090495;28;20468;-47
2022/09/27 06:38:03;;;;;;;12.20;9.13;;;10.80;1.00;;;;;;5091301;28;20458;-48
2022/09/27 06:40:29;;;;;;;17.23;9.27;;;10.80;1.00;;;;;;5088846;28;20231;-46
2022/09/27 06:43:02;;;;;;;11.87;7.53;;;10.80;1.00;;;;;;5084520;28;20443;-46
2022/09/27 06:45:27;;;;;;;11.67;8.03;;;10.90;1.00;;;;;;5090124;28;20654;-46
2022/09/27 06:47:54;;;;;;;10.03;6.70;;;10.80;1.00;;;;;;5086632;28;20457;-46
2022/09/27 06:50:19;;;;;;;11.10;7.07;;;10.80;1.00;;;;;;5070168;28;20529;-46
2022/09/27 06:52:49;;;;;;;11.33;6.60;;;10.80;1.00;;;;;;5087540;28;20457;-46
2022/09/27 06:55:15;;;;;;;11.90;7.23;;;10.80;1.00;;;;;;5089225;28;20203;-46
2022/09/27 07:00:25;;;;;;;13.80;6.17;;;10.80;1.00;;;;;;5097543;28;20497;-47
2022/09/27 07:02:59;;;;;;;7.70;4.80;;;10.80;1.00;;;;;;5089393;28;20477;-47
2022/09/27 07:05:29;;;;;;;11.63;4.87;;;10.80;1.00;;;;;;5090409;28;20443;-46
2022/09/27 07:07:56;;;;;;;8.00;4.70;;;10.80;1.00;;;;;;5084092;28;20447;-48
2022/09/27 07:10:33;;;;;;;6.03;3.10;;;10.70;1.00;;;;;;5086941;28;20462;-47
2022/09/27 07:13:06;;;;;;;4.10;3.00;;;10.70;1.00;;;;;;5087010;28;20525;-47
2022/09/27 07:15:36;;;;;;;3.60;2.40;;;10.70;1.00;;;;;;5100378;28;20519;-47
2022/09/27 07:18:03;;;;;;;2.97;2.17;;;10.60;1.00;;;;;;5093281;28;20480;-47
2022/09/27 07:20:30;;;;;;;3.47;1.77;;;10.60;1.00;;;;;;5092122;28;20483;-47
2022/09/27 07:22:56;;;;;;;2.57;1.40;;;10.60;1.00;;;;;;5089346;28;20470;-46
2022/09/27 07:25:23;;;;;;;5.43;1.50;;;10.60;1.00;;;;;;5088078;28;20465;-46
2022/09/27 07:27:49;;;;;;;3.23;1.20;;;10.50;1.00;;;;;;5094043;28;20457;-46
2022/09/27 07:30:15;;;;;;;1.30;1.20;;;10.60;1.00;;;;;;5089389;28;20415;-47
2022/09/27 07:32:42;;;;;;;1.83;1.20;;;10.60;1.00;;;;;;5086695;28;22453;-47
2022/09/27 07:35:09;;;;;;;1.40;1.23;;;10.60;1.00;;;;;;5101229;28;20435;-46
2022/09/27 07:37:36;;;;;;;1.33;1.10;;;10.70;1.00;;;;;;5090221;28;20836;-46
2022/09/27 07:40:06;;;;;;;4.70;1.60;;;10.70;1.00;;;;;;5090821;28;20414;-46
2022/09/27 07:42:32;;;;;;;1.77;1.30;;;10.80;1.00;;;;;;5089146;28;20446;-46
2022/09/27 07:44:58;;;;;;;1.57;1.43;;;10.90;1.00;;;;;;5086163;28;21069;-46
2022/09/27 07:47:25;;;;;;;3.00;1.67;;;11.00;1.00;;;;;;5092034;28;20454;-46
2022/09/27 07:49:51;;;;;;;3.30;1.80;;;11.00;1.00;;;;;;5098605;28;20446;-47
2022/09/27 07:52:18;;;;;;;3.23;2.00;;;11.10;99.90;;;;;;5089728;28;20479;-46
2022/09/27 07:54:44;;;;;;;6.17;2.30;;;11.20;99.90;;;;;;5088502;28;20966;-47
2022/09/27 07:57:11;;;;;;;2.20;2.00;;;11.20;99.90;;;;;;5089057;28;20478;-50
2022/09/27 07:59:36;;;;;;;4.23;2.50;;;11.20;99.90;;;;;;5088591;28;20924;-46
2022/09/27 08:02:02;;;;;;;3.77;2.07;;;11.30;99.90;;;;;;5088498;28;20430;-46
2022/09/27 08:04:28;;;;;;;2.77;1.90;;;11.30;99.90;;;;;;5085883;28;20208;-46
2022/09/27 08:06:54;;;;;;;2.93;2.17;;;11.30;99.90;;;;;;5093174;28;20752;-46
2022/09/27 08:09:20;;;;;;;5.00;1.97;;;11.30;99.90;;;;;;5094371;28;20197;-47
2022/09/27 08:11:46;;;;;;;1.70;1.43;;;11.30;99.90;;;;;;5093584;28;20792;-47
2022/09/27 08:14:12;;;;;;;2.07;1.63;;;11.30;99.90;;;;;;5092883;28;20712;-46
2022/09/27 08:16:37;;;;;;;4.23;1.80;;;11.30;99.90;;;;;;5092544;28;20223;-46
2022/09/27 08:19:03;;;;;;;2.60;1.77;;;11.30;99.90;;;;;;5094080;28;20426;-46
2022/09/27 08:21:29;;;;;;;3.70;2.30;;;11.40;99.90;;;;;;5094450;28;20397;-47
2022/09/27 08:23:56;;;;;;;2.60;1.90;;;11.40;99.90;;;;;;5094016;28;20701;-47
2022/09/27 08:26:21;;;;;;;4.20;2.03;;;11.40;99.90;;;;;;5066789;28;21134;-47
2022/09/27 08:28:47;;;;;;;3.77;1.97;;;11.50;99.90;;;;;;5098277;28;20438;-47
2022/09/27 08:31:13;;;;;;;2.97;2.10;;;11.60;99.90;;;;;;5093520;28;20443;-46
2022/09/27 08:33:39;;;;;;;2.80;1.83;;;11.70;99.90;;;;;;5090146;28;20275;-46
2022/09/27 08:36:10;;;;;;;1.90;1.77;;;11.70;99.90;;;;;;5075632;28;20204;-46
2022/09/27 08:38:36;;;;;;;4.13;2.30;;;11.70;99.90;;;;;;5096646;28;20262;-47
2022/09/27 08:41:09;;;;;;;4.03;2.20;;;11.70;99.90;;;;;;5095460;28;20783;-46
2022/09/27 08:43:50;;;;;;;5.20;2.27;;;11.60;99.90;;;;;;5093337;28;20205;-46
2022/09/27 08:46:38;;;;;;;4.27;2.60;;;11.60;99.90;;;;;;5077436;28;20936;-46
2022/09/27 08:49:21;;;;;;;8.87;2.27;;;11.50;99.90;;;;;;5092483;28;20525;-46
2022/09/27 08:51:51;;;;;;;2.57;2.37;;;11.40;99.90;;;;;;5093506;28;20467;-46
2022/09/27 08:54:21;;;;;;;6.40;2.90;;;11.50;99.90;;;;;;5093481;28;20438;-50
2022/09/27 08:56:50;;;;;;;4.40;2.37;;;11.50;99.90;;;;;;5087958;28;20470;-46
2022/09/27 08:59:23;;;;;;;4.50;2.37;;;11.50;99.90;;;;;;5091015;28;20439;-46
2022/09/27 09:01:51;;;;;;;2.30;1.57;;;11.50;99.90;;;;;;5093263;28;20426;-46
2022/09/27 09:04:34;;;;;;;2.90;1.90;;;11.40;99.90;;;;;;5092876;28;20434;-47
2022/09/27 09:07:21;;;;;;;1.73;1.60;;;11.40;99.90;;;;;;5075034;28;20488;-46
2022/09/27 09:12:45;;;;;;;3.50;2.27;;;11.40;99.90;;;;;;5092258;28;20435;-46
2022/09/27 09:13:15;;;;;;;6.20;2.07;;;11.40;99.90;;;;;;5091263;28;20447;-46
2022/09/27 09:15:58;;;;;;;2.37;2.13;;;11.30;99.90;;;;;;5092981;28;20440;-46
2022/09/27 09:18:26;;;;;;;3.47;1.90;;;11.40;94.50;;;;;;5082113;28;20464;-46
2022/09/27 09:21:04;;;;;;;2.40;2.20;;;11.30;91.70;;;;;;5089239;28;20464;-46
2022/09/27 09:23:49;;;;;;;2.20;2.00;;;11.30;79.20;;;;;;5085352;28;20430;-46
2022/09/27 09:26:36;;;;;;;3.63;2.63;;;11.30;58.00;;;;;;5091476;28;20462;-46
2022/09/27 09:29:11;;;;;;;3.70;2.43;;;11.20;75.20;;;;;;5091733;28;20484;-46
2022/09/27 09:31:56;;;;;;;4.80;2.17;;;11.30;99.90;;;;;;5097407;28;20487;-46
2022/09/27 09:34:34;;;;;;;1.90;1.80;;;11.30;99.90;;;;;;5083011;28;20901;-46
2022/09/27 09:37:09;;;;;;;2.10;1.90;;;11.20;99.90;;;;;;5087536;28;20848;-46
2022/09/27 09:39:57;;;;;;;2.30;2.20;;;11.30;99.90;;;;;;5092266;28;20423;-46
2022/09/27 09:42:26;;;;;;;2.80;2.33;;;11.20;99.90;;;;;;5073900;28;20419;-46
2022/09/27 09:45:40;;;;;;;3.80;2.20;;;11.30;97.80;;;;;;5076952;28;20874;-46
2022/09/27 09:48:14;;;;;;;4.10;2.43;;;11.20;99.90;;;;;;5007595;28;20458;-46
2022/09/27 09:50:46;;;;;;;3.30;2.20;;;11.30;99.90;;;;;;5083943;28;20947;-46
2022/09/27 09:53:43;;;;;;;3.30;1.80;;;11.30;99.90;;;;;;5090546;28;20540;-46
2022/09/27 09:56:19;;;;;;;2.87;1.63;;;11.30;99.90;;;;;;5090709;28;20434;-46
2022/09/27 09:58:54;;;;;;;3.63;2.07;;;11.30;99.90;;;;;;5071064;28;20480;-46
2022/09/27 10:01:43;;;;;;;3.60;1.90;;;11.40;99.50;;;;;;5090806;28;20501;-53
2022/09/27 10:04:24;;;;;;;2.70;1.60;;;11.40;97.10;;;;;;5092229;28;20889;-46
2022/09/27 10:06:51;;;;;;;3.10;1.70;;;11.50;98.50;;;;;;5101685;28;20442;-46
2022/09/27 10:09:23;;;;;;;3.80;2.10;;;11.40;50.60;;;;;;5112490;28;20406;-46
2022/09/27 10:11:49;;;;;;;3.30;1.70;;;11.40;63.20;;;;;;5094113;28;20805;-46
2022/09/27 10:14:17;;;;;;;3.47;1.50;;;11.40;51.10;;;;;;5090899;28;20450;-46
2022/09/27 10:16:51;;;;;;;5.40;2.43;;;11.40;70.60;;;;;;5085090;28;20257;-46
2022/09/27 10:19:25;;;;;;;2.13;1.63;;;11.50;98.00;;;;;;5092060;28;20461;-46
2022/09/27 10:21:52;;;;;;;2.03;1.57;;;11.60;99.90;;;;;;5092893;28;20394;-46
2022/09/27 10:24:18;;;;;;;3.57;1.70;;;11.70;84.00;;;;;;5092592;28;20423;-46
2022/09/27 10:26:47;;;;;;;2.03;1.83;;;11.80;43.20;;;;;;5080693;28;20537;-46
2022/09/27 10:29:33;;;;;;;5.27;2.00;;;11.80;32.20;;;;;;5105185;28;20453;-46
2022/09/27 10:32:02;;;;;;;4.13;2.20;;;11.90;1.00;;;;;;5102792;28;20435;-46
2022/09/27 10:34:39;;;;;;;2.03;1.67;;;12.00;1.00;;;;;;5091845;28;20473;-46
2022/09/27 10:37:16;;;;;;;3.93;1.87;;;12.00;1.00;;;;;;5097320;28;20470;-46
2022/09/27 10:39:47;;;;;;;1.40;1.30;;;12.20;1.00;;;;;;5092211;28;20415;-46
2022/09/27 10:42:32;;;;;;;1.50;1.40;;;12.30;1.00;;;;;;5093890;28;20501;-46
2022/09/27 10:45:18;;;;;;;1.40;1.30;;;12.50;1.00;;;;;;5090092;28;20516;-46
2022/09/27 10:47:44;;;;;;;2.70;1.20;;;12.50;1.00;;;;;;5108912;28;20519;-46
2022/09/27 10:50:24;;;;;;;1.57;1.43;;;12.50;1.00;;;;;;5111651;28;20449;-45
2022/09/27 10:53:03;;;;;;;3.20;1.50;;;12.60;1.00;;;;;;5091289;28;20957;-46
2022/09/27 10:55:34;;;;;;;1.40;1.30;;;12.70;1.00;;;;;;5086710;28;20498;-46
2022/09/27 10:58:01;;;;;;;1.50;1.40;;;12.70;99.90;;;;;;5089983;28;20809;-46
2022/09/27 11:00:32;;;;;;;1.90;1.47;;;12.80;99.90;;;;;;5090801;28;20975;-46
2022/09/27 11:03:06;;;;;;;2.20;1.37;;;12.80;99.90;;;;;;5090012;28;20419;-46
2022/09/27 11:05:38;;;;;;;5.13;1.40;;;12.70;99.90;;;;;;5092319;28;20437;-46
2022/09/27 11:08:24;;;;;;;2.60;1.40;;;12.60;38.30;;;;;;5096405;28;20844;-46
2022/09/27 11:11:16;;;;;;;5.53;1.80;;;12.50;1.00;;;;;;5089949;28;20939;-46
2022/09/27 11:13:59;;;;;;;5.40;2.00;;;12.50;6.10;;;;;;5091017;28;20444;-46
2022/09/27 11:16:53;;;;;;;2.83;2.03;;;12.50;99.90;;;;;;5088205;28;20442;-46
2022/09/27 11:19:52;;;;;;;2.17;1.97;;;12.60;99.90;;;;;;5076604;28;20431;-46
2022/09/27 11:22:20;;;;;;;3.60;2.60;;;12.60;99.90;;;;;;5082576;28;20504;-46
2022/09/27 11:24:58;;;;;;;1.93;1.77;;;12.70;99.90;;;;;;5090851;28;20614;-46
2022/09/27 11:27:48;;;;;;;1.90;1.60;;;12.60;99.90;;;;;;5104486;28;20476;-48
2022/09/27 11:30:19;;;;;;;4.53;1.77;;;12.60;99.90;;;;;;5101675;28;20431;-46
2022/09/27 11:33:04;;;;;;;1.83;1.60;;;12.70;99.90;;;;;;5091180;28;20426;-46
2022/09/27 11:35:49;;;;;;;1.20;1.10;;;12.80;99.90;;;;;;5090702;28;20944;-46
2022/09/27 11:38:51;;;;;;;1.87;1.40;;;12.90;99.90;;;;;;5092506;28;20463;-47
2022/09/27 11:41:22;;;;;;;1.73;1.60;;;13.00;99.90;;;;;;5093978;28;20513;-46
2022/09/27 11:43:57;;;;;;;1.67;1.40;;;13.20;99.90;;;;;;5097229;28;20753;-46
2022/09/27 11:46:33;;;;;;;2.50;1.23;;;13.40;99.90;;;;;;5086236;28;20842;-46
2022/09/27 11:49:31;;;;;;;4.03;1.60;;;13.50;13.70;;;;;;5091082;28;20426;-46
2022/09/27 11:52:21;;;;;;;2.17;1.90;;;13.70;1.00;;;;;;5065897;28;20479;-46
2022/09/27 11:55:22;;;;;;;2.83;1.30;;;13.70;99.90;;;;;;5097111;28;20422;-47
2022/09/27 11:58:17;;;;;;;1.70;1.60;;;13.60;1.00;;;;;;5110432;28;21055;-46
2022/09/27 12:00:49;;;;;;;3.63;1.67;;;13.50;99.90;;;;;;5100784;28;20430;-46
2022/09/27 12:03:15;;;;;;;2.43;1.50;;;13.60;1.00;;;;;;5095705;28;20480;-46
2022/09/27 12:06:17;;;;;;;8.87;2.23;;;13.60;99.90;;;;;;5094408;28;20437;-46
2022/09/27 12:09:19;;;;;;;3.00;1.70;;;13.60;1.00;;;;;;5096457;28;20271;-46
2022/09/27 12:11:45;;;;;;;5.27;1.40;;;13.60;99.90;;;;;;5104010;28;20430;-46
2022/09/27 12:14:16;;;;;;;1.20;1.07;;;13.60;1.00;;;;;;5099740;28;20517;-46
2022/09/27 12:16:43;;;;;;;1.53;1.07;;;13.50;99.90;;;;;;5096655;28;20198;-46
2022/09/27 12:19:22;;;;;;;1.60;1.50;;;13.40;52.60;;;;;;5097028;28;20824;-46
2022/09/27 12:21:48;;;;;;;2.13;1.50;;;13.40;79.40;;;;;;5098432;28;21081;-47
2022/09/27 12:24:20;;;;;;;5.23;1.20;;;13.40;1.00;;;;;;5111020;28;20448;-46
2022/09/27 12:26:50;;;;;;;4.13;1.37;;;13.40;1.00;;;;;;5117191;28;20398;-46
2022/09/27 12:29:32;;;;;;;2.97;1.30;;;13.50;99.90;;;;;;5096110;28;20974;-46
2022/09/27 12:32:32;;;;;;;1.83;1.63;;;13.60;1.00;;;;;;5102486;28;20503;-46
2022/09/27 12:35:10;;;;;;;1.30;1.20;;;13.70;1.00;;;;;;5113392;28;20438;-46
2022/09/27 12:38:01;;;;;;;3.10;1.00;;;13.70;99.90;;;;;;5096323;28;20486;-46
2022/09/27 12:40:38;;;;;;;1.53;1.40;;;13.60;6.80;;;;;;5112748;28;20440;-46
2022/09/27 12:43:11;;;;;;;1.93;1.20;;;13.40;1.00;;;;;;5114910;28;20867;-46
2022/09/27 12:45:54;;;;;;;2.00;1.50;;;13.30;1.00;;;;;;5117344;28;20808;-47
2022/09/27 12:48:22;;;;;;;1.20;1.20;;;13.30;99.90;;;;;;5103818;28;20958;-47
2022/09/27 12:51:11;;;;;;;2.90;1.33;;;13.30;99.90;;;;;;5096760;28;20481;-46
2022/09/27 12:54:08;;;;;;;2.60;1.33;;;13.50;1.00;;;;;;5088180;28;20925;-46
2022/09/27 12:56:42;;;;;;;3.20;1.40;;;13.50;99.90;;;;;;5095744;28;20423;-46
2022/09/27 12:59:25;;;;;;;3.30;1.20;;;13.40;1.00;;;;;;5093419;28;20410;-45
2022/09/27 13:02:12;;;;;;;1.20;1.10;;;13.10;1.00;;;;;;5080509;28;20564;-46
2022/09/27 13:05:11;;;;;;;1.80;1.00;;;12.90;99.90;;;;;;5098572;28;20817;-45
2022/09/27 13:08:14;;;;;;;1.57;1.40;;;12.90;99.90;;;;;;5093542;28;20400;-46
2022/09/27 13:10:46;;;;;;;5.57;1.23;;;12.90;1.00;;;;;;5078368;28;20476;-45
2022/09/27 13:13:15;;;;;;;1.83;0.90;;;12.90;99.90;;;;;;5090429;28;20908;-45
2022/09/27 13:15:44;;;;;;;1.10;1.00;;;13.00;99.90;;;;;;5093093;28;20534;-46
2022/09/27 13:18:30;;;;;;;1.57;1.13;;;13.00;99.90;;;;;;5091550;28;20549;-45
2022/09/27 13:20:56;;;;;;;5.70;1.07;;;13.00;99.90;;;;;;5088737;28;20434;-46
2022/09/27 13:23:34;;;;;;;1.30;1.17;;;12.90;1.00;;;;;;5092204;28;20933;-46
2022/09/27 13:26:41;;;;;;;1.20;1.00;;;12.90;1.00;;;;;;5089797;28;20185;-45